Time;durP1;ratioP1;P1;durP2;ratioP2;P2;SDS_P1;SDS_P2;PMS_P1;PMS_P2;Temp;Humidity;BMP_temperature;BMP_pressure;BME280_temperature;BME280_humidity;BME280_pressure;Samples;Min_cycle;Max_cycle;Signal;HPM_P1;HPM_P2
2023/01/20 00:01:26;;;;;;;6.20;5.07;;;;;;;1.29;100.00;100877.34;5002934;28;20029;-81
2023/01/20 00:03:53;;;;;;;10.25;5.80;;;;;;;1.23;100.00;100884.09;5025303;28;20033;-81
2023/01/20 00:06:19;;;;;;;8.77;5.28;;;;;;;1.42;100.00;100884.69;5007337;28;20032;-80
2023/01/20 00:08:49;;;;;;;11.45;6.25;;;;;;;1.06;100.00;100895.03;5026757;28;20022;-81
2023/01/20 00:11:14;;;;;;;6.97;5.18;;;;;;;1.13;100.00;100889.88;5008568;28;20481;-81
2023/01/20 00:13:40;;;;;;;9.90;6.53;;;;;;;1.32;100.00;100884.97;5028875;28;20083;-81
2023/01/20 00:16:07;;;;;;;8.25;5.97;;;;;;;1.30;100.00;100895.50;5024470;28;20076;-80
2023/01/20 00:18:33;;;;;;;14.32;7.82;;;;;;;1.38;100.00;100893.94;5028371;28;20076;-80
2023/01/20 00:21:10;;;;;;;14.68;8.15;;;;;;;1.47;100.00;100894.78;5026663;28;20061;-80
2023/01/20 00:23:37;;;;;;;13.32;8.43;;;;;;;1.21;100.00;100892.69;5020503;28;20055;-81
2023/01/20 00:26:07;;;;;;;17.02;8.23;;;;;;;1.04;100.00;100897.28;5021911;28;20060;-80
2023/01/20 00:28:33;;;;;;;15.50;8.90;;;;;;;0.95;100.00;100894.44;5023944;28;20060;-81
2023/01/20 00:31:16;;;;;;;16.50;8.20;;;;;;;1.24;100.00;100893.19;4999670;28;20533;-81
2023/01/20 00:33:42;;;;;;;13.63;8.65;;;;;;;1.04;100.00;100898.09;5009621;28;20037;-80
2023/01/20 00:36:09;;;;;;;12.23;6.97;;;;;;;1.31;100.00;100897.13;5011362;28;20120;-81
2023/01/20 00:38:34;;;;;;;14.90;7.57;;;;;;;1.13;100.00;100903.66;5006461;28;20075;-81
2023/01/20 00:41:00;;;;;;;14.10;7.95;;;;;;;1.04;100.00;100908.31;5021425;28;20034;-81
2023/01/20 00:43:26;;;;;;;19.30;9.68;;;;;;;1.05;100.00;100907.16;5023387;28;20033;-81
2023/01/20 00:45:51;;;;;;;13.88;8.50;;;;;;;1.19;100.00;100905.16;5024156;28;20029;-80
2023/01/20 00:48:16;;;;;;;12.18;7.50;;;;;;;1.23;100.00;100911.69;5022251;28;20111;-80
2023/01/20 00:50:42;;;;;;;12.85;8.05;;;;;;;0.97;100.00;100915.06;5004153;28;20021;-81
2023/01/20 00:53:07;;;;;;;15.07;9.13;;;;;;;1.18;100.00;100920.91;5024858;28;20044;-81
2023/01/20 00:55:32;;;;;;;14.85;8.43;;;;;;;1.01;100.00;100935.34;5023484;28;20021;-81
2023/01/20 00:57:58;;;;;;;14.68;7.80;;;;;;;1.20;100.00;100929.66;5029819;28;20037;-80
2023/01/20 01:00:23;;;;;;;17.17;8.25;;;;;;;1.39;100.00;100935.00;5012077;28;20021;-80
2023/01/20 01:02:48;;;;;;;14.38;8.45;;;;;;;0.92;100.00;100939.97;5028079;28;20408;-81
2023/01/20 01:05:14;;;;;;;13.13;8.40;;;;;;;1.31;100.00;100941.25;5026896;28;20065;-81
2023/01/20 01:07:39;;;;;;;15.15;8.68;;;;;;;0.70;100.00;100954.53;5010866;28;20053;-81
2023/01/20 01:10:05;;;;;;;15.50;9.32;;;;;;;0.85;100.00;100961.63;5029129;28;20083;-81
2023/01/20 01:12:31;;;;;;;15.20;8.07;;;;;;;0.84;100.00;100965.50;5008383;28;20029;-81
2023/01/20 01:14:56;;;;;;;16.05;8.15;;;;;;;1.08;100.00;100950.66;5023697;28;20433;-81
2023/01/20 01:17:22;;;;;;;16.05;8.48;;;;;;;1.16;100.00;100960.91;5027935;28;20140;-81
2023/01/20 01:19:50;;;;;;;15.10;9.32;;;;;;;1.46;100.00;100969.59;5028945;28;20064;-81
2023/01/20 01:22:16;;;;;;;14.23;9.00;;;;;;;1.08;100.00;100964.44;5027518;28;20049;-82
2023/01/20 01:24:44;;;;;;;16.15;8.35;;;;;;;1.26;100.00;100965.38;5025491;28;20032;-81
2023/01/20 01:27:10;;;;;;;14.65;7.60;;;;;;;1.44;100.00;100963.56;5021271;28;20649;-81
2023/01/20 01:29:35;;;;;;;14.15;7.75;;;;;;;1.15;100.00;100964.81;5006642;28;20033;-81
2023/01/20 01:32:01;;;;;;;16.00;9.52;;;;;;;1.51;100.00;100972.22;5021873;28;20037;-81
2023/01/20 01:34:26;;;;;;;16.05;8.27;;;;;;;0.92;100.00;100978.56;5021900;28;20052;-81
2023/01/20 01:36:52;;;;;;;16.40;8.65;;;;;;;1.38;100.00;100985.75;5006953;28;20036;-81
2023/01/20 01:39:17;;;;;;;13.77;8.10;;;;;;;1.28;100.00;100988.75;5007605;28;20029;-81
2023/01/20 01:41:43;;;;;;;14.30;8.60;;;;;;;1.15;100.00;100982.16;5022294;28;20022;-81
2023/01/20 01:44:11;;;;;;;13.40;7.72;;;;;;;1.49;100.00;100991.81;5017030;28;20034;-81
2023/01/20 01:46:37;;;;;;;15.40;7.53;;;;;;;1.49;100.00;100989.06;4998391;28;20029;-81
2023/01/20 01:49:08;;;;;;;14.90;7.57;;;;;;;1.22;100.00;100984.47;5022423;28;20392;-81
2023/01/20 01:51:57;;;;;;;19.35;8.52;;;;;;;1.21;100.00;101002.16;5005946;28;20022;-81
2023/01/20 01:54:26;;;;;;;11.73;7.22;;;;;;;1.30;100.00;101000.28;5006824;28;20079;-81
2023/01/20 01:56:52;;;;;;;13.65;7.32;;;;;;;1.41;100.00;101001.69;5025522;28;20038;-81
2023/01/20 01:59:19;;;;;;;12.10;7.97;;;;;;;1.12;100.00;100987.50;5003070;28;20026;-81
2023/01/20 02:01:49;;;;;;;13.93;7.90;;;;;;;1.36;100.00;100987.19;5013819;28;20059;-81
2023/01/20 02:04:22;;;;;;;12.18;8.10;;;;;;;1.39;100.00;100995.66;5012166;28;20025;-80
2023/01/20 02:06:55;;;;;;;14.75;8.20;;;;;;;0.88;100.00;100996.84;5013102;28;20032;-81
2023/01/20 02:09:21;;;;;;;16.65;8.77;;;;;;;0.77;100.00;100987.97;5034778;28;20024;-81
2023/01/20 02:11:51;;;;;;;14.20;8.98;;;;;;;0.60;100.00;101007.91;5015843;28;20057;-81
2023/01/20 02:14:20;;;;;;;15.90;8.77;;;;;;;0.88;100.00;101012.56;5026425;28;20084;-81
2023/01/20 02:17:16;;;;;;;15.23;8.85;;;;;;;0.98;100.00;101017.84;5012603;28;20033;-81
2023/01/20 02:20:11;;;;;;;17.25;9.38;;;;;;;0.87;100.00;101014.50;5012531;28;20382;-80
2023/01/20 02:22:58;;;;;;;19.80;10.27;;;;;;;1.04;100.00;101008.34;5011572;28;20026;-80
2023/01/20 02:25:45;;;;;;;18.67;10.27;;;;;;;1.10;100.00;101007.09;5011489;28;20080;-81
2023/01/20 02:29:02;;;;;;;18.73;10.18;;;;;;;0.95;100.00;101000.00;5004638;28;20030;-81
2023/01/20 02:31:30;;;;;;;18.50;9.73;;;;;;;1.16;100.00;101005.88;4990621;28;20580;-84
2023/01/20 02:34:19;;;;;;;18.52;10.15;;;;;;;1.19;100.00;100991.44;5011559;28;20029;-82
2023/01/20 02:36:56;;;;;;;19.75;9.13;;;;;;;1.09;100.00;100999.13;5010770;28;20105;-81
2023/01/20 02:39:29;;;;;;;19.60;9.82;;;;;;;1.19;100.00;100994.19;5009936;28;20367;-82
2023/01/20 02:42:00;;;;;;;17.45;9.63;;;;;;;1.31;100.00;100996.41;5005332;28;20038;-81
2023/01/20 02:44:44;;;;;;;17.25;9.60;;;;;;;1.38;100.00;100996.78;5005626;28;20030;-83
2023/01/20 02:47:25;;;;;;;23.35;11.05;;;;;;;1.25;100.00;100997.66;5003820;28;20083;-82
2023/01/20 02:49:58;;;;;;;17.23;8.70;;;;;;;1.26;100.00;100999.28;5014493;28;20057;-82
2023/01/20 02:52:34;;;;;;;18.05;11.15;;;;;;;1.28;100.00;100993.44;4998654;28;20022;-82
2023/01/20 02:55:07;;;;;;;21.05;10.95;;;;;;;1.31;100.00;100998.38;5004427;28;20030;-81
2023/01/20 02:57:40;;;;;;;19.55;10.32;;;;;;;0.98;100.00;101007.63;5003529;28;20033;-82
2023/01/20 03:00:15;;;;;;;19.50;9.75;;;;;;;1.29;100.00;101009.69;5003509;28;20046;-82
2023/01/20 03:02:43;;;;;;;18.77;9.52;;;;;;;1.12;100.00;101004.84;5003825;28;20025;-81
2023/01/20 03:05:16;;;;;;;21.10;10.40;;;;;;;1.28;100.00;101008.06;5004602;28;20124;-81
2023/01/20 03:07:43;;;;;;;19.67;10.32;;;;;;;0.90;100.00;101008.38;4999686;28;20052;-81
2023/01/20 03:10:13;;;;;;;18.60;10.70;;;;;;;1.20;100.00;101028.09;5003440;28;20040;-81
2023/01/20 03:12:45;;;;;;;19.33;11.00;;;;;;;1.08;100.00;101019.56;5002868;28;20429;-81
2023/01/20 03:15:11;;;;;;;18.63;10.65;;;;;;;1.07;100.00;101017.94;5006316;28;20030;-81
2023/01/20 03:17:37;;;;;;;23.50;11.32;;;;;;;0.93;100.00;101027.06;5006369;28;20115;-81
2023/01/20 03:20:03;;;;;;;20.52;11.40;;;;;;;0.99;100.00;101012.03;5005639;28;20018;-81
2023/01/20 03:22:29;;;;;;;23.13;11.68;;;;;;;1.10;100.00;101014.56;5003552;28;20030;-81
2023/01/20 03:24:57;;;;;;;24.05;11.52;;;;;;;1.11;100.00;101013.44;5008035;28;20023;-81
2023/01/20 03:27:23;;;;;;;23.98;11.95;;;;;;;1.00;100.00;101019.16;5006603;28;20416;-81
2023/01/20 03:29:48;;;;;;;24.08;12.05;;;;;;;1.14;100.00;101018.31;5022367;28;20022;-82
2023/01/20 03:32:14;;;;;;;23.30;12.75;;;;;;;1.27;100.00;101013.91;5003840;28;20037;-82
2023/01/20 03:34:41;;;;;;;25.02;12.23;;;;;;;1.01;100.00;101020.81;5004042;28;20018;-82
2023/01/20 03:37:09;;;;;;;25.13;12.35;;;;;;;1.35;100.00;101018.66;5003410;28;20034;-82
2023/01/20 03:39:38;;;;;;;23.02;12.75;;;;;;;1.08;100.00;101019.56;5007167;28;20401;-81
2023/01/20 03:42:09;;;;;;;24.98;14.07;;;;;;;1.29;100.00;101026.25;5005988;28;20048;-81
2023/01/20 03:44:38;;;;;;;24.35;12.80;;;;;;;1.28;100.00;101024.59;5007498;28;20037;-81
2023/01/20 03:47:30;;;;;;;27.33;12.18;;;;;;;1.15;100.00;101014.44;5002114;28;20034;-82
2023/01/20 03:50:12;;;;;;;27.23;13.23;;;;;;;1.15;100.00;101020.75;5006289;28;20564;-82
2023/01/20 03:52:58;;;;;;;25.52;12.75;;;;;;;0.92;100.00;101022.66;5004076;28;20062;-81
2023/01/20 03:55:50;;;;;;;30.05;13.90;;;;;;;0.97;100.00;101027.22;5005147;28;20395;-81
2023/01/20 03:58:30;;;;;;;27.38;14.63;;;;;;;1.13;100.00;101027.72;5000141;28;20064;-81
2023/01/20 04:00:56;;;;;;;27.58;14.18;;;;;;;1.18;100.00;101028.44;5002689;28;20036;-81
2023/01/20 04:03:31;;;;;;;32.13;14.80;;;;;;;1.18;100.00;101027.59;5003522;28;20061;-81
2023/01/20 04:06:00;;;;;;;32.85;13.70;;;;;;;1.15;100.00;101042.00;5008133;28;20029;-81
2023/01/20 04:08:28;;;;;;;31.20;13.98;;;;;;;0.90;100.00;101041.44;5009525;28;20080;-81
2023/01/20 04:10:56;;;;;;;32.95;15.43;;;;;;;1.02;100.00;101033.47;5003980;28;20029;-81
2023/01/20 04:13:22;;;;;;;29.08;14.27;;;;;;;1.21;100.00;101040.78;5009511;28;20061;-81
2023/01/20 04:15:48;;;;;;;31.85;15.40;;;;;;;1.11;100.00;101035.47;5009755;28;20030;-81
2023/01/20 04:18:17;;;;;;;29.67;14.93;;;;;;;1.05;100.00;101043.03;5026537;28;20052;-80
2023/01/20 04:20:49;;;;;;;30.02;14.75;;;;;;;1.09;100.00;101054.28;5008115;28;20117;-81
2023/01/20 04:23:47;;;;;;;35.13;15.68;;;;;;;1.26;100.00;101042.59;5010003;28;20528;-81
2023/01/20 04:26:12;;;;;;;33.40;14.80;;;;;;;1.13;100.00;101044.25;5025667;28;20033;-81
2023/01/20 04:28:37;;;;;;;36.42;16.30;;;;;;;0.89;100.00;101047.28;5003541;28;20493;-81
2023/01/20 04:31:03;;;;;;;37.30;16.38;;;;;;;0.94;100.00;101059.00;5007881;28;20037;-81
2023/01/20 04:33:28;;;;;;;35.05;16.05;;;;;;;0.94;100.00;101045.22;5023624;28;20032;-82
2023/01/20 04:35:53;;;;;;;34.47;16.65;;;;;;;1.07;100.00;101053.75;5019946;28;20117;-81
2023/01/20 04:38:19;;;;;;;33.60;15.50;;;;;;;1.16;100.00;101047.22;5000987;28;20112;-81
2023/01/20 04:40:45;;;;;;;38.33;17.40;;;;;;;1.06;100.00;101061.22;5023019;28;20037;-81
2023/01/20 04:43:11;;;;;;;32.28;16.25;;;;;;;1.00;100.00;101059.69;5005328;28;20412;-81
2023/01/20 04:45:36;;;;;;;40.30;17.00;;;;;;;0.89;100.00;101072.88;5019715;28;20566;-81
2023/01/20 04:48:06;;;;;;;36.30;17.77;;;;;;;0.95;100.00;101066.16;5022983;28;20088;-81
2023/01/20 04:50:32;;;;;;;40.80;18.15;;;;;;;0.89;100.00;101067.38;5021274;28;20021;-81
2023/01/20 04:52:57;;;;;;;40.08;16.90;;;;;;;0.90;100.00;101071.75;5007430;28;20064;-81
2023/01/20 04:55:22;;;;;;;40.75;17.80;;;;;;;1.13;100.00;101071.81;5021807;28;20389;-81
2023/01/20 04:57:48;;;;;;;36.63;17.38;;;;;;;1.19;100.00;101062.31;5017675;28;20030;-81
2023/01/20 05:00:18;;;;;;;38.22;18.23;;;;;;;0.92;100.00;101064.00;5024652;28;20033;-81
2023/01/20 05:02:44;;;;;;;38.60;18.20;;;;;;;1.11;100.00;101068.56;5019574;28;20664;-81
2023/01/20 05:05:09;;;;;;;40.35;18.17;;;;;;;1.13;100.00;101058.03;5001388;28;20034;-81
2023/01/20 05:07:35;;;;;;;41.42;19.92;;;;;;;1.10;100.00;101062.25;5006767;28;20519;-81
2023/01/20 05:10:00;;;;;;;40.10;18.88;;;;;;;1.09;100.00;101065.31;5021589;28;20477;-81
2023/01/20 05:12:25;;;;;;;42.75;22.17;;;;;;;1.12;100.00;101059.19;5003504;28;20029;-82
2023/01/20 05:14:51;;;;;;;39.95;17.70;;;;;;;1.35;100.00;101055.34;5002993;28;20030;-81
2023/01/20 05:17:16;;;;;;;37.35;19.45;;;;;;;1.00;100.00;101062.47;5021042;28;20133;-81
2023/01/20 05:19:42;;;;;;;36.22;17.88;;;;;;;0.97;100.00;101072.16;5002161;28;20444;-82
2023/01/20 05:22:08;;;;;;;41.80;20.77;;;;;;;1.27;100.00;101067.09;5002063;28;20034;-81
2023/01/20 05:24:33;;;;;;;41.53;20.20;;;;;;;0.95;100.00;101073.56;5013944;28;20052;-81
2023/01/20 05:27:00;;;;;;;33.92;17.40;;;;;;;1.18;100.00;101071.69;5011943;28;20069;-81
2023/01/20 05:29:25;;;;;;;40.80;20.70;;;;;;;0.95;100.00;101065.31;5029312;28;20380;-81
2023/01/20 05:31:51;;;;;;;45.55;20.77;;;;;;;1.01;100.00;101073.19;5026695;28;20021;-81
2023/01/20 05:34:16;;;;;;;41.42;20.05;;;;;;;1.08;100.00;101074.72;5005464;28;20037;-81
2023/01/20 05:36:41;;;;;;;41.10;19.58;;;;;;;1.17;100.00;101086.63;5025086;28;20029;-81
2023/01/20 05:39:07;;;;;;;37.25;20.20;;;;;;;1.38;100.00;101074.00;5031893;28;20112;-81
2023/01/20 05:41:32;;;;;;;45.63;19.15;;;;;;;1.07;100.00;101079.38;5023536;28;20435;-81
2023/01/20 05:43:57;;;;;;;45.92;21.83;;;;;;;0.94;100.00;101086.56;5011292;28;20032;-81
2023/01/20 05:46:23;;;;;;;46.20;20.65;;;;;;;1.02;100.00;101085.03;5006575;28;20028;-81
2023/01/20 05:48:48;;;;;;;44.67;20.40;;;;;;;1.01;100.00;101075.09;5012477;28;20096;-81
2023/01/20 05:51:13;;;;;;;43.92;21.77;;;;;;;0.88;100.00;101068.47;5020461;28;20037;-81
2023/01/20 05:53:39;;;;;;;41.47;20.67;;;;;;;1.00;100.00;101079.81;5021906;28;20029;-81
2023/01/20 05:56:05;;;;;;;49.78;22.30;;;;;;;0.72;100.00;101069.94;5018771;28;20112;-82
2023/01/20 05:58:31;;;;;;;45.92;21.70;;;;;;;0.91;100.00;101081.66;5018079;28;20041;-81
2023/01/20 06:01:08;;;;;;;52.67;20.90;;;;;;;0.75;100.00;101085.84;5017652;28;20366;-82
2023/01/20 06:03:33;;;;;;;45.30;21.00;;;;;;;0.88;100.00;101085.03;4998237;28;20030;-82
2023/01/20 06:06:04;;;;;;;48.47;21.05;;;;;;;0.90;100.00;101090.22;5002486;28;20025;-81
2023/01/20 06:08:30;;;;;;;51.05;20.40;;;;;;;0.91;100.00;101100.16;5023934;28;20509;-81
2023/01/20 06:10:55;;;;;;;52.40;21.20;;;;;;;1.09;100.00;101098.38;5001331;28;20022;-81
2023/01/20 06:13:21;;;;;;;49.22;21.75;;;;;;;1.00;100.00;101093.59;5016475;28;20029;-81
2023/01/20 06:15:51;;;;;;;51.17;22.83;;;;;;;0.87;100.00;101096.38;5016958;28;20056;-82
2023/01/20 06:18:17;;;;;;;50.75;23.00;;;;;;;0.80;100.00;101102.28;5015352;28;20049;-82
2023/01/20 06:20:42;;;;;;;53.63;22.70;;;;;;;0.85;100.00;101104.94;4998111;28;20108;-82
2023/01/20 06:23:07;;;;;;;55.55;23.63;;;;;;;0.81;100.00;101109.44;5019883;28;20025;-82
2023/01/20 06:25:33;;;;;;;59.33;25.38;;;;;;;0.79;100.00;101123.50;5000179;28;20029;-82
2023/01/20 06:27:59;;;;;;;51.30;23.67;;;;;;;0.85;100.00;101107.69;5005811;28;20021;-82
2023/01/20 06:30:24;;;;;;;55.88;24.42;;;;;;;0.73;100.00;101119.22;5029144;28;20044;-82
2023/01/20 06:32:49;;;;;;;55.65;24.08;;;;;;;0.78;100.00;101118.28;4999843;28;20033;-82
2023/01/20 06:35:15;;;;;;;55.70;22.73;;;;;;;0.93;100.00;101111.69;5022890;28;20052;-81
2023/01/20 06:37:40;;;;;;;52.13;21.65;;;;;;;0.81;100.00;101109.44;5009459;28;20485;-81
2023/01/20 06:40:06;;;;;;;61.40;25.40;;;;;;;0.70;100.00;101116.28;5016690;28;20036;-82
2023/01/20 06:42:31;;;;;;;64.75;25.63;;;;;;;0.85;100.00;101109.66;5024472;28;20109;-82
2023/01/20 06:44:57;;;;;;;59.08;24.05;;;;;;;0.76;100.00;101109.50;5017001;28;20063;-81
2023/01/20 06:47:22;;;;;;;59.25;24.65;;;;;;;0.79;100.00;101114.44;5008113;28;20030;-80
2023/01/20 06:49:47;;;;;;;63.72;22.45;;;;;;;0.66;100.00;101101.47;5029326;28;20025;-80
2023/01/20 06:52:13;;;;;;;65.53;26.35;;;;;;;0.55;100.00;101112.69;5026226;28;20028;-80
2023/01/20 06:54:38;;;;;;;54.67;23.13;;;;;;;0.88;100.00;101104.31;5012179;28;20113;-81
2023/01/20 06:57:03;;;;;;;66.40;25.17;;;;;;;0.85;100.00;101113.22;5024570;28;20060;-83
2023/01/20 06:59:29;;;;;;;63.33;26.50;;;;;;;0.83;100.00;101107.19;5018702;28;20033;-81
2023/01/20 07:01:54;;;;;;;76.68;27.38;;;;;;;0.77;100.00;101120.25;5027261;28;20116;-81
2023/01/20 07:04:19;;;;;;;61.47;27.73;;;;;;;0.86;100.00;101117.59;4994191;28;20465;-81
2023/01/20 07:06:45;;;;;;;66.55;24.45;;;;;;;0.79;100.00;101128.22;5016171;28;20033;-81
2023/01/20 07:09:11;;;;;;;65.72;24.50;;;;;;;0.77;100.00;101131.25;5021847;28;20064;-82
2023/01/20 07:11:37;;;;;;;34.28;13.98;;;;;;;3.78;100.00;101143.22;5017058;28;20095;-82
2023/01/20 07:14:04;;;;;;;81.32;29.50;;;;;;;2.77;100.00;101158.94;5005335;28;20750;-82
2023/01/20 07:16:30;;;;;;;53.80;23.02;;;;;;;2.00;100.00;101160.88;5001467;28;20053;-81
2023/01/20 07:18:56;;;;;;;59.47;23.27;;;;;;;1.57;100.00;101158.56;5020878;28;20033;-81
2023/01/20 07:21:21;;;;;;;63.45;25.73;;;;;;;2.01;100.00;101173.56;4999157;28;20374;-81
2023/01/20 07:23:48;;;;;;;66.88;25.33;;;;;;;1.71;100.00;101175.91;4999826;28;20025;-78
2023/01/20 07:26:16;;;;;;;56.95;23.60;;;;;;;1.38;100.00;101184.34;5020593;28;20497;-78
2023/01/20 07:28:42;;;;;;;59.08;25.52;;;;;;;1.33;100.00;101187.22;5018864;28;20022;-78
2023/01/20 07:31:08;;;;;;;57.00;23.60;;;;;;;1.16;100.00;101201.63;5013691;28;20619;-80
2023/01/20 07:33:34;;;;;;;55.85;23.73;;;;;;;1.00;100.00;101200.28;5022300;28;20080;-78
2023/01/20 07:36:00;;;;;;;62.10;23.25;;;;;;;0.94;100.00;101194.03;5019983;28;20389;-79
2023/01/20 07:38:26;;;;;;;58.97;23.13;;;;;;;1.24;100.00;101194.56;5006041;28;20026;-78
2023/01/20 07:40:51;;;;;;;61.35;22.70;;;;;;;1.15;100.00;101193.66;5023240;28;20029;-78
2023/01/20 07:43:17;;;;;;;59.00;24.58;;;;;;;1.02;100.00;101187.81;5003663;28;20061;-78
2023/01/20 07:45:42;;;;;;;56.67;22.25;;;;;;;1.16;100.00;101187.00;5020287;28;20104;-77
2023/01/20 07:48:08;;;;;;;55.38;20.70;;;;;;;1.20;100.00;101196.28;5003881;28;20029;-78
2023/01/20 07:50:35;;;;;;;54.13;22.00;;;;;;;1.12;100.00;101197.03;5001175;28;20034;-79
2023/01/20 07:53:00;;;;;;;62.28;24.73;;;;;;;0.91;100.00;101197.44;5004664;28;20087;-78
2023/01/20 07:55:26;;;;;;;63.15;22.60;;;;;;;0.99;100.00;101206.91;5007742;28;20029;-78
2023/01/20 07:57:51;;;;;;;65.43;25.73;;;;;;;1.00;100.00;101211.31;5019561;28;20413;-79
2023/01/20 08:00:18;;;;;;;60.50;23.20;;;;;;;0.93;100.00;101211.72;5004429;28;20439;-79
2023/01/20 08:02:43;;;;;;;62.13;23.70;;;;;;;1.09;100.00;101214.16;5006130;28;20033;-78
2023/01/20 08:05:09;;;;;;;57.63;23.75;;;;;;;1.21;100.00;101212.53;5005522;28;20017;-77
2023/01/20 08:07:34;;;;;;;56.40;23.67;;;;;;;0.98;100.00;101222.63;5004478;28;20561;-79
2023/01/20 08:09:59;;;;;;;53.78;24.50;;;;;;;0.95;100.00;101220.50;5007776;28;20025;-79
2023/01/20 08:12:26;;;;;;;54.65;22.55;;;;;;;1.09;100.00;101222.44;5017431;28;20052;-79
2023/01/20 08:14:52;;;;;;;53.60;22.00;;;;;;;1.11;100.00;101228.47;5005422;28;20101;-79
2023/01/20 08:17:17;;;;;;;55.88;23.88;;;;;;;1.10;100.00;101227.66;5003636;28;20188;-79
2023/01/20 08:19:42;;;;;;;49.47;20.95;;;;;;;0.97;100.00;101228.44;5002294;28;20025;-78
2023/01/20 08:22:08;;;;;;;55.05;22.42;;;;;;;0.96;100.00;101227.63;5000955;28;20041;-78
2023/01/20 08:24:33;;;;;;;53.38;22.63;;;;;;;1.08;100.00;101229.09;5002890;28;20036;-79
2023/01/20 08:26:58;;;;;;;53.45;21.63;;;;;;;1.07;100.00;101238.47;5000314;28;20035;-79
2023/01/20 08:29:24;;;;;;;63.55;24.15;;;;;;;1.12;100.00;101241.16;5004109;28;20029;-80
2023/01/20 08:31:50;;;;;;;50.72;22.90;;;;;;;1.12;100.00;101233.69;5006121;28;20397;-78
2023/01/20 08:34:17;;;;;;;54.60;19.98;;;;;;;1.27;100.00;101229.81;5018587;28;20029;-79
2023/01/20 08:36:43;;;;;;;49.33;21.35;;;;;;;1.31;100.00;101228.06;5004859;28;20053;-79
2023/01/20 08:39:12;;;;;;;58.33;22.33;;;;;;;1.36;100.00;101239.00;5022659;28;20085;-79
2023/01/20 08:41:40;;;;;;;57.80;21.55;;;;;;;1.47;100.00;101241.53;5017286;28;20041;-79
2023/01/20 08:44:07;;;;;;;54.45;21.70;;;;;;;1.46;100.00;101242.69;5022308;28;20109;-79
2023/01/20 08:46:33;;;;;;;54.90;22.75;;;;;;;1.20;100.00;101241.25;5002601;28;20017;-79
2023/01/20 08:48:59;;;;;;;50.83;20.70;;;;;;;1.30;100.00;101244.91;5003388;28;20657;-79
2023/01/20 08:51:27;;;;;;;53.28;21.40;;;;;;;1.15;100.00;101246.84;5022223;28;20049;-79
2023/01/20 08:53:53;;;;;;;48.90;22.17;;;;;;;1.16;100.00;101248.50;5027788;28;20037;-79
2023/01/20 08:56:19;;;;;;;54.75;22.35;;;;;;;1.23;100.00;101256.38;5029763;28;20040;-79
2023/01/20 08:58:46;;;;;;;50.78;20.65;;;;;;;1.26;100.00;101258.50;5025510;28;20080;-79
2023/01/20 09:01:14;;;;;;;53.38;22.42;;;;;;;1.20;100.00;101270.75;5018786;28;20108;-79
2023/01/20 09:03:40;;;;;;;47.45;20.63;;;;;;;1.14;100.00;101266.44;5025446;28;20044;-79
2023/01/20 09:06:06;;;;;;;54.75;22.50;;;;;;;1.08;100.00;101267.69;5016514;28;20053;-80
2023/01/20 09:08:32;;;;;;;48.47;21.98;;;;;;;1.13;100.00;101270.34;5006834;28;20030;-79
2023/01/20 09:11:08;;;;;;;52.83;21.92;;;;;;;1.15;100.00;101262.59;5025011;28;20469;-78
2023/01/20 09:13:33;;;;;;;51.75;20.65;;;;;;;1.18;100.00;101273.00;5005452;28;20049;-79
2023/01/20 09:15:59;;;;;;;52.13;23.83;;;;;;;1.23;100.00;101278.41;5018383;28;20132;-80
2023/01/20 09:18:24;;;;;;;52.03;21.00;;;;;;;1.33;100.00;101281.00;5006453;28;20042;-79
2023/01/20 09:20:50;;;;;;;60.38;23.55;;;;;;;1.51;100.00;101281.19;5002691;28;20072;-79
2023/01/20 09:23:15;;;;;;;60.22;22.02;;;;;;;1.26;100.00;101279.75;5000017;28;20033;-79
2023/01/20 09:25:40;;;;;;;50.70;21.40;;;;;;;1.25;100.00;101284.44;5018484;28;20029;-79
2023/01/20 09:28:06;;;;;;;53.15;22.63;;;;;;;1.37;100.00;101284.78;5022323;28;20060;-79
2023/01/20 09:30:31;;;;;;;48.88;21.15;;;;;;;1.42;100.00;101295.69;5000638;28;20845;-78
2023/01/20 09:32:56;;;;;;;55.17;21.13;;;;;;;1.24;100.00;101299.34;5000972;28;20058;-79
2023/01/20 09:35:22;;;;;;;56.17;23.58;;;;;;;1.15;100.00;101306.69;5021126;28;20030;-80
2023/01/20 09:44:07;;;;;;;59.10;24.95;;;;;;;1.34;100.00;101314.91;5030066;28;20091;-79
2023/01/20 09:53:14;;;;;;;53.40;22.40;;;;;;;1.29;100.00;101324.09;5020740;28;20456;-79
2023/01/20 09:55:50;;;;;;;59.88;22.90;;;;;;;1.42;100.00;101315.00;5019624;28;20036;-78
2023/01/20 09:58:44;;;;;;;64.28;23.60;;;;;;;1.34;100.00;101325.94;5015783;28;20033;-80
2023/01/20 10:01:17;;;;;;;53.17;20.52;;;;;;;1.33;100.00;101322.38;5002194;28;20041;-79
2023/01/20 10:03:42;;;;;;;64.07;25.23;;;;;;;1.46;100.00;101331.78;5026902;28;20021;-78
2023/01/20 10:06:16;;;;;;;66.85;24.58;;;;;;;1.29;100.00;101326.84;5022744;28;20495;-78
2023/01/20 10:08:50;;;;;;;62.63;24.63;;;;;;;1.40;100.00;101319.19;5018287;28;20033;-79
2023/01/20 10:11:19;;;;;;;61.83;24.02;;;;;;;1.41;100.00;101318.06;5019074;28;20044;-78
2023/01/20 10:13:57;;;;;;;60.13;26.38;;;;;;;1.46;100.00;101325.44;5025674;28;20619;-79
2023/01/20 10:16:36;;;;;;;59.20;26.08;;;;;;;1.60;100.00;101338.13;5006151;28;20065;-78
2023/01/20 10:19:11;;;;;;;64.63;22.92;;;;;;;1.62;100.00;101333.13;5001642;28;20025;-79
2023/01/20 10:21:44;;;;;;;64.20;26.92;;;;;;;1.61;100.00;101331.47;5019990;28;20116;-79
2023/01/20 10:24:13;;;;;;;;;;;;;;;1.37;100.00;101342.69;5007218;28;20105;-81
2023/01/20 10:27:05;;;;;;;67.32;26.27;;;;;;;1.60;100.00;101342.81;5007345;28;19913;-78
2023/01/20 10:29:43;;;;;;;70.63;25.58;;;;;;;1.42;100.00;101339.84;5018976;28;20049;-78
2023/01/20 10:32:22;;;;;;;71.35;25.25;;;;;;;1.62;100.00;101348.84;5008643;28;20405;-78
2023/01/20 10:34:52;;;;;;;67.15;25.95;;;;;;;1.61;100.00;101347.22;5005237;28;20448;-78
2023/01/20 10:37:18;;;;;;;59.17;25.48;;;;;;;1.62;100.00;101338.63;5008039;28;20071;-78
2023/01/20 10:39:51;;;;;;;67.38;24.35;;;;;;;1.66;100.00;101347.09;5008530;28;20072;-78
2023/01/20 10:42:17;;;;;;;;;;;;;;;1.75;100.00;101358.25;5019894;28;20034;-78
2023/01/20 10:44:43;;;;;;;63.53;25.58;;;;;;;1.63;100.00;101351.28;5019185;28;20334;-78
2023/01/20 10:47:24;;;;;;;71.78;24.55;;;;;;;1.56;100.00;101361.94;5005152;28;20464;-79
2023/01/20 10:49:52;;;;;;;59.75;27.92;;;;;;;1.65;100.00;101363.97;5022940;28;20385;-78
2023/01/20 10:52:32;;;;;;;62.85;23.35;;;;;;;1.58;100.00;101353.31;5008094;28;20577;-78
2023/01/20 10:55:20;;;;;;;65.30;25.27;;;;;;;1.65;100.00;101370.31;5025971;28;20030;-78
2023/01/20 10:58:00;;;;;;;70.20;24.27;;;;;;;1.68;100.00;101366.13;5002393;28;20041;-78
2023/01/20 11:00:28;;;;;;;69.32;24.02;;;;;;;1.58;100.00;101358.84;5003224;28;20021;-78
2023/01/20 11:02:57;;;;;;;63.72;25.33;;;;;;;1.54;100.00;101355.06;5023109;28;20091;-78
2023/01/20 11:05:26;;;;;;;61.63;23.58;;;;;;;1.58;100.00;101359.69;5011640;28;20113;-78
2023/01/20 11:07:53;;;;;;;63.38;25.10;;;;;;;1.75;100.00;101359.06;5009011;28;20552;-78
2023/01/20 11:10:23;;;;;;;54.47;22.45;;;;;;;1.79;100.00;101365.63;5002302;28;20430;-78
2023/01/20 11:12:52;;;;;;;51.50;23.27;;;;;;;1.73;100.00;101361.31;5006572;28;20032;-78
2023/01/20 11:15:21;;;;;;;66.15;24.60;;;;;;;1.74;100.00;101360.19;5021209;28;20045;-79
2023/01/20 11:18:12;;;;;;;60.83;24.35;;;;;;;1.77;100.00;101361.50;4999030;28;20404;-78
2023/01/20 11:20:44;;;;;;;61.00;23.00;;;;;;;1.73;100.00;101357.72;5020077;28;20127;-79
2023/01/20 11:23:31;;;;;;;60.63;25.05;;;;;;;1.74;100.00;101364.91;5002058;28;20037;-78
2023/01/20 11:26:30;;;;;;;62.15;24.20;;;;;;;1.87;100.00;101372.34;5008465;28;20553;-77
2023/01/20 11:29:01;;;;;;;70.05;26.80;;;;;;;1.86;100.00;101359.69;5021123;28;20040;-78
2023/01/20 11:31:46;;;;;;;60.25;25.77;;;;;;;1.82;100.00;101370.50;5020337;28;20041;-78
2023/01/20 11:34:31;;;;;;;60.30;24.80;;;;;;;1.78;100.00;101371.44;5026270;28;20503;-78